createdAt,value
2022-11-29T00:00:42.657Z,80.02
2022-11-29T00:01:42.788Z,80.02
2022-11-29T00:02:42.770Z,79.99
2022-11-29T00:03:42.657Z,80.09
2022-11-29T00:04:42.967Z,79.99
2022-11-29T00:05:42.601Z,79.99
2022-11-29T00:06:42.587Z,80.09
2022-11-29T00:07:42.656Z,79.92
2022-11-29T00:08:42.589Z,80.02
2022-11-29T00:09:42.585Z,79.78
2022-11-29T00:10:42.547Z,79.92
2022-11-29T00:11:42.527Z,80.13
2022-11-29T00:12:42.520Z,79.82
2022-11-29T00:13:42.537Z,79.71
2022-11-29T00:14:42.867Z,79.82
2022-11-29T00:15:42.517Z,79.71
2022-11-29T00:16:42.568Z,79.92
2022-11-29T00:17:42.467Z,79.82
2022-11-29T00:18:42.464Z,79.82
2022-11-29T00:19:43.443Z,80.02
2022-11-29T00:20:42.455Z,79.82
2022-11-29T00:21:42.450Z,79.82
2022-11-29T00:22:42.414Z,80.13
2022-11-29T00:23:42.428Z,79.82
2022-11-29T00:24:42.712Z,80.02
2022-11-29T00:25:42.375Z,79.82
2022-11-29T00:26:42.401Z,79.92
2022-11-29T00:27:42.391Z,80.13
2022-11-29T00:28:42.348Z,79.82
2022-11-29T00:29:42.335Z,79.71
2022-11-29T00:30:42.438Z,79.92
2022-11-29T00:31:42.312Z,79.61
2022-11-29T00:32:42.304Z,79.82
2022-11-29T00:33:42.433Z,79.71
2022-11-29T00:34:43.236Z,79.71
2022-11-29T00:35:42.274Z,79.71
2022-11-29T00:36:42.281Z,79.82
2022-11-29T00:37:42.241Z,80.44
2022-11-29T00:38:42.235Z,80.34
2022-11-29T00:39:42.347Z,80.48
2022-11-29T00:40:42.225Z,80.24
2022-11-29T00:41:42.231Z,79.82
2022-11-29T00:42:42.192Z,79.71
2022-11-29T00:43:42.184Z,79.92
2022-11-29T00:44:42.634Z,80.02
2022-11-29T00:45:42.327Z,79.54
2022-11-29T00:46:42.147Z,79.92
2022-11-29T00:47:42.137Z,79.85
2022-11-29T00:48:42.136Z,79.82
2022-11-29T00:49:42.939Z,79.96
2022-11-29T00:50:42.105Z,80.24
2022-11-29T00:51:42.126Z,80.06
2022-11-29T00:52:42.106Z,79.96
2022-11-29T00:53:42.070Z,79.85
2022-11-29T00:54:42.350Z,79.85
2022-11-29T00:55:42.069Z,79.75
2022-11-29T00:56:42.037Z,80.06
2022-11-29T00:57:42.032Z,80.06
2022-11-29T00:58:42.032Z,79.75
2022-11-29T00:59:42.001Z,80.16
2022-11-29T01:00:41.994Z,80.16
2022-11-29T01:01:42.069Z,80.06
2022-11-29T01:02:42.010Z,80.06
2022-11-29T01:03:42.085Z,80.16
2022-11-29T01:04:42.113Z,80.06
2022-11-29T01:05:41.933Z,80.06
2022-11-29T01:06:41.922Z,79.96
2022-11-29T01:07:41.958Z,80.27
2022-11-29T01:08:41.924Z,80.38
2022-11-29T01:09:41.910Z,80.27
2022-11-29T01:10:41.894Z,80.06
2022-11-29T01:11:41.862Z,80.16
2022-11-29T01:12:41.883Z,80.06
2022-11-29T01:13:41.843Z,80.10
2022-11-29T01:14:42.176Z,80.38
2022-11-29T01:15:41.857Z,80.06
2022-11-29T01:16:41.879Z,80.06
2022-11-29T01:17:41.806Z,80.06
2022-11-29T01:18:41.786Z,80.06
2022-11-29T01:19:46.409Z,80.06
2022-11-29T01:20:42.902Z,80.06
2022-11-29T01:21:41.758Z,79.96
2022-11-29T01:22:41.773Z,80.16
2022-11-29T01:23:41.738Z,80.16
2022-11-29T01:24:42.174Z,80.20
2022-11-29T01:25:41.711Z,80.62
2022-11-29T01:26:41.731Z,80.20
2022-11-29T01:27:41.693Z,80.16
2022-11-29T01:28:42.448Z,80.52
2022-11-29T01:29:41.678Z,80.20
2022-11-29T01:30:41.742Z,80.20
2022-11-29T01:31:41.649Z,79.99
2022-11-29T01:32:41.740Z,80.31
2022-11-29T01:33:41.624Z,80.06
2022-11-29T01:34:41.830Z,80.10
2022-11-29T01:35:41.609Z,80.10
2022-11-29T01:36:41.726Z,80.10
2022-11-29T01:37:42.439Z,80.20
2022-11-29T01:38:41.754Z,80.10
2022-11-29T01:39:41.554Z,80.20
2022-11-29T01:40:41.572Z,80.20
2022-11-29T01:41:41.542Z,80.06
2022-11-29T01:42:41.526Z,80.27
2022-11-29T01:43:41.519Z,80.20
2022-11-29T01:44:41.809Z,80.20
2022-11-29T01:45:41.583Z,79.89
2022-11-29T01:46:41.485Z,80.20
2022-11-29T01:47:41.480Z,80.41
2022-11-29T01:48:41.464Z,80.41
2022-11-29T01:49:41.451Z,79.99
2022-11-29T01:50:41.494Z,80.20
2022-11-29T01:51:41.434Z,80.10
2022-11-29T01:52:41.954Z,80.10
2022-11-29T01:53:41.407Z,79.79
2022-11-29T01:54:41.550Z,80.20
2022-11-29T01:55:41.453Z,80.10
2022-11-29T01:56:41.436Z,79.79
2022-11-29T01:57:41.389Z,79.89
2022-11-29T01:58:41.341Z,80.03
2022-11-29T01:59:41.964Z,79.89
2022-11-29T02:00:41.324Z,80.10
2022-11-29T02:01:41.980Z,79.99
2022-11-29T02:02:41.410Z,80.20
2022-11-29T02:03:41.344Z,79.89
2022-11-29T02:04:41.287Z,80.13
2022-11-29T02:05:41.999Z,79.82
2022-11-29T02:06:41.263Z,80.31
2022-11-29T02:07:41.291Z,80.20
2022-11-29T02:08:41.250Z,79.89
2022-11-29T02:09:41.232Z,80.10
2022-11-29T02:10:41.215Z,80.24
2022-11-29T02:11:41.206Z,79.89
2022-11-29T02:12:41.220Z,80.24
2022-11-29T02:13:41.183Z,80.35
2022-11-29T02:14:41.183Z,80.03
2022-11-29T02:15:41.229Z,80.24
2022-11-29T02:16:41.147Z,80.13
2022-11-29T02:17:41.163Z,80.03
2022-11-29T02:18:41.133Z,80.13
2022-11-29T02:19:41.949Z,80.03
2022-11-29T02:20:41.134Z,80.03
2022-11-29T02:21:41.166Z,80.35
2022-11-29T02:22:41.092Z,80.35
2022-11-29T02:23:41.076Z,80.13
2022-11-29T02:24:41.067Z,80.13
2022-11-29T02:25:41.047Z,80.35
2022-11-29T02:26:41.076Z,80.13
2022-11-29T02:27:41.025Z,80.13
2022-11-29T02:28:41.034Z,80.13
2022-11-29T02:29:41.003Z,80.24
2022-11-29T02:30:41.068Z,80.45
2022-11-29T02:31:40.991Z,80.13
2022-11-29T02:32:41.007Z,80.38
2022-11-29T02:33:40.955Z,80.07
2022-11-29T02:34:41.025Z,80.13
2022-11-29T02:35:40.958Z,80.80
2022-11-29T02:36:40.931Z,80.03
2022-11-29T02:37:40.947Z,80.38
2022-11-29T02:38:41.026Z,80.38
2022-11-29T02:39:40.897Z,80.27
2022-11-29T02:40:40.876Z,80.27
2022-11-29T02:41:40.872Z,80.38
2022-11-29T02:42:40.864Z,80.38
2022-11-29T02:43:40.856Z,80.17
2022-11-29T02:44:40.942Z,80.38
2022-11-29T02:45:40.826Z,80.27
2022-11-29T02:46:40.944Z,80.49
2022-11-29T02:47:40.810Z,80.17
2022-11-29T02:48:40.790Z,80.38
2022-11-29T02:49:40.801Z,80.59
2022-11-29T02:50:40.798Z,80.07
2022-11-29T02:51:40.756Z,80.17
2022-11-29T02:52:41.764Z,80.38
2022-11-29T02:53:40.764Z,80.42
2022-11-29T02:54:40.724Z,80.17
2022-11-29T02:55:40.715Z,80.27
2022-11-29T02:56:40.714Z,80.42
2022-11-29T02:57:40.695Z,80.59
2022-11-29T02:58:40.682Z,80.59
2022-11-29T02:59:40.671Z,80.59
2022-11-29T03:00:40.683Z,80.38
2022-11-29T03:01:40.707Z,80.59
2022-11-29T03:02:40.781Z,80.21
2022-11-29T03:03:40.624Z,80.63
2022-11-29T03:04:40.618Z,80.63
2022-11-29T03:05:40.606Z,80.52
2022-11-29T03:06:40.592Z,80.27
2022-11-29T03:07:40.699Z,80.63
2022-11-29T03:08:40.602Z,80.42
2022-11-29T03:09:40.566Z,80.63
2022-11-29T03:10:40.565Z,80.63
2022-11-29T03:11:40.553Z,80.59
2022-11-29T03:12:40.567Z,80.21
2022-11-29T03:13:40.514Z,80.52
2022-11-29T03:14:40.584Z,80.73
2022-11-29T03:15:41.677Z,80.21
2022-11-29T03:16:43.201Z,80.31
2022-11-29T03:17:40.475Z,80.42
2022-11-29T03:18:40.462Z,80.52
2022-11-29T03:19:40.453Z,80.63
2022-11-29T03:20:40.486Z,80.21
2022-11-29T03:21:40.425Z,80.10
2022-11-29T03:22:40.415Z,80.10
2022-11-29T03:23:40.399Z,80.10
2022-11-29T03:24:40.396Z,80.42
2022-11-29T03:25:40.381Z,80.10
2022-11-29T03:26:40.410Z,80.52
2022-11-29T03:27:40.358Z,80.63
2022-11-29T03:28:40.346Z,80.73
2022-11-29T03:29:40.367Z,80.52
2022-11-29T03:30:40.340Z,80.52
2022-11-29T03:31:40.317Z,80.31
2022-11-29T03:32:40.371Z,80.21
2022-11-29T03:33:40.285Z,80.66
2022-11-29T03:34:41.040Z,80.52
2022-11-29T03:35:40.275Z,80.52
2022-11-29T03:36:40.261Z,80.63
2022-11-29T03:37:40.249Z,80.31
2022-11-29T03:38:40.283Z,80.21
2022-11-29T03:39:40.229Z,80.66
2022-11-29T03:40:40.211Z,80.52
2022-11-29T03:41:40.227Z,80.21
2022-11-29T03:42:40.193Z,80.21
2022-11-29T03:43:40.956Z,80.63
2022-11-29T03:44:40.210Z,80.31
2022-11-29T03:45:40.219Z,80.24
2022-11-29T03:46:40.194Z,79.90
2022-11-29T03:47:40.175Z,80.42
2022-11-29T03:48:40.153Z,80.21
2022-11-29T03:49:40.167Z,80.31
2022-11-29T03:50:40.135Z,80.42
2022-11-29T03:51:40.086Z,80.46
2022-11-29T03:52:40.079Z,80.31
2022-11-29T03:53:40.073Z,80.52
2022-11-29T03:54:40.057Z,80.14
2022-11-29T03:55:40.049Z,80.31
2022-11-29T03:56:40.069Z,79.93
2022-11-29T03:57:40.031Z,80.24
2022-11-29T03:58:40.018Z,80.52
2022-11-29T03:59:40.007Z,80.10
2022-11-29T04:00:39.993Z,80.52
2022-11-29T04:01:40.980Z,80.63
2022-11-29T04:02:40.055Z,80.31
2022-11-29T04:03:39.953Z,80.21
2022-11-29T04:04:39.980Z,80.42
2022-11-29T04:05:39.936Z,80.35
2022-11-29T04:06:39.924Z,80.31
2022-11-29T04:07:39.966Z,80.56
2022-11-29T04:08:40.028Z,80.52
2022-11-29T04:09:39.892Z,80.10
2022-11-29T04:10:39.874Z,80.52
2022-11-29T04:11:39.865Z,80.42
2022-11-29T04:12:39.855Z,80.21
2022-11-29T04:13:39.847Z,80.46
2022-11-29T04:14:39.868Z,80.10
2022-11-29T04:15:39.891Z,80.21
2022-11-29T04:16:39.842Z,80.14
2022-11-29T04:17:39.801Z,80.56
2022-11-29T04:18:39.794Z,80.66
2022-11-29T04:19:39.777Z,80.35
2022-11-29T04:20:43.096Z,80.56
2022-11-29T04:21:40.752Z,80.46
2022-11-29T04:22:39.743Z,80.46
2022-11-29T04:23:39.740Z,80.21
2022-11-29T04:24:39.742Z,80.56
2022-11-29T04:25:39.738Z,80.35
2022-11-29T04:26:39.728Z,80.14
2022-11-29T04:27:39.682Z,80.24
2022-11-29T04:28:39.681Z,80.14
2022-11-29T04:29:39.662Z,80.14
2022-11-29T04:30:39.658Z,80.24
2022-11-29T04:31:39.642Z,80.24
2022-11-29T04:32:39.672Z,80.56
2022-11-29T04:33:39.630Z,80.14
2022-11-29T04:34:39.613Z,80.56
2022-11-29T04:35:39.618Z,80.14
2022-11-29T04:36:39.610Z,80.14
2022-11-29T04:37:39.579Z,80.46
2022-11-29T04:38:39.598Z,80.66
2022-11-29T04:39:39.564Z,80.66
2022-11-29T04:40:39.544Z,80.35
2022-11-29T04:41:39.533Z,80.66
2022-11-29T04:42:39.522Z,80.46
2022-11-29T04:43:40.469Z,80.66
2022-11-29T04:44:39.553Z,80.46
2022-11-29T04:45:39.489Z,80.24
2022-11-29T04:46:39.512Z,80.24
2022-11-29T04:47:39.466Z,80.66
2022-11-29T04:48:39.449Z,80.14
2022-11-29T04:49:39.448Z,80.66
2022-11-29T04:50:39.527Z,80.24
2022-11-29T04:51:39.973Z,80.24
2022-11-29T04:52:39.438Z,80.24
2022-11-29T04:53:39.400Z,80.35
2022-11-29T04:54:39.392Z,80.66
2022-11-29T04:55:39.440Z,80.66
2022-11-29T04:56:39.393Z,80.56
2022-11-29T04:57:39.360Z,80.66
2022-11-29T04:58:39.973Z,80.56
2022-11-29T04:59:39.336Z,80.80
2022-11-29T05:00:39.348Z,80.46
2022-11-29T05:01:39.327Z,80.24
2022-11-29T05:02:39.398Z,80.70
2022-11-29T05:03:39.284Z,80.35
2022-11-29T05:04:39.295Z,80.56
2022-11-29T05:05:39.280Z,80.28
2022-11-29T05:06:39.269Z,80.66
2022-11-29T05:07:39.265Z,80.60
2022-11-29T05:08:39.380Z,80.70
2022-11-29T05:09:39.219Z,80.28
2022-11-29T05:10:39.237Z,80.49
2022-11-29T05:11:39.200Z,80.38
2022-11-29T05:12:39.188Z,80.60
2022-11-29T05:13:39.214Z,80.28
2022-11-29T05:14:39.208Z,80.18
2022-11-29T05:15:39.237Z,80.49
2022-11-29T05:16:39.139Z,80.60
2022-11-29T05:17:39.129Z,80.07
2022-11-29T05:18:39.128Z,80.28
2022-11-29T05:19:39.110Z,80.28
2022-11-29T05:20:39.130Z,80.49
2022-11-29T05:21:39.084Z,80.49
2022-11-29T05:22:39.071Z,80.49
2022-11-29T05:23:39.082Z,80.28
2022-11-29T05:24:39.102Z,80.28
2022-11-29T05:25:39.045Z,80.38
2022-11-29T05:26:39.047Z,80.28
2022-11-29T05:27:39.042Z,80.28
2022-11-29T05:28:39.012Z,80.38
2022-11-29T05:29:38.995Z,80.28
2022-11-29T05:30:38.992Z,80.38
2022-11-29T05:31:39.040Z,80.28
2022-11-29T05:32:39.000Z,80.38
2022-11-29T05:33:38.972Z,80.70
2022-11-29T05:34:38.946Z,80.28
2022-11-29T05:35:38.945Z,80.14
2022-11-29T05:36:38.936Z,80.28
2022-11-29T05:37:38.949Z,80.28
2022-11-29T05:38:38.935Z,80.28
2022-11-29T05:39:38.918Z,80.28
2022-11-29T05:40:38.900Z,80.28
2022-11-29T05:41:38.898Z,80.28
2022-11-29T05:42:38.857Z,80.18
2022-11-29T05:43:38.845Z,80.38
2022-11-29T05:44:38.864Z,80.49
2022-11-29T05:45:38.907Z,80.38
2022-11-29T05:46:38.861Z,80.70
2022-11-29T05:47:38.802Z,80.28
2022-11-29T05:48:38.797Z,80.70
2022-11-29T05:49:39.484Z,80.38
2022-11-29T05:50:38.840Z,80.38
2022-11-29T05:51:38.756Z,80.38
2022-11-29T05:52:38.750Z,80.18
2022-11-29T05:53:38.738Z,80.38
2022-11-29T05:54:38.742Z,80.28
2022-11-29T05:55:38.720Z,80.28
2022-11-29T05:56:38.821Z,80.38
2022-11-29T05:57:38.690Z,80.32
2022-11-29T05:58:38.680Z,80.07
2022-11-29T05:59:38.685Z,80.21
2022-11-29T06:00:38.654Z,80.28
2022-11-29T06:01:38.713Z,80.11
2022-11-29T06:02:38.740Z,80.28
2022-11-29T06:03:38.625Z,79.79
2022-11-29T06:04:38.614Z,80.00
2022-11-29T06:05:38.625Z,80.21
2022-11-29T06:06:38.607Z,80.07
2022-11-29T06:07:38.689Z,80.00
2022-11-29T06:08:38.655Z,80.32
2022-11-29T06:09:38.558Z,79.97
2022-11-29T06:10:38.551Z,80.21
2022-11-29T06:11:38.533Z,80.18
2022-11-29T06:12:38.546Z,80.07
2022-11-29T06:13:38.601Z,80.21
2022-11-29T06:14:38.535Z,80.18
2022-11-29T06:15:38.506Z,80.07
2022-11-29T06:16:38.501Z,79.97
2022-11-29T06:17:39.353Z,80.07
2022-11-29T06:18:38.452Z,79.97
2022-11-29T06:19:38.444Z,79.65
2022-11-29T06:20:38.485Z,80.28
2022-11-29T06:21:38.432Z,80.07
2022-11-29T06:22:38.414Z,79.97
2022-11-29T06:23:38.416Z,80.07
2022-11-29T06:24:38.411Z,79.97
2022-11-29T06:25:38.386Z,79.97
2022-11-29T06:26:38.387Z,80.07
2022-11-29T06:27:38.356Z,80.18
2022-11-29T06:28:38.376Z,80.18
2022-11-29T06:29:38.329Z,79.97
2022-11-29T06:30:38.339Z,79.83
2022-11-29T06:31:38.492Z,80.14
2022-11-29T06:32:38.323Z,79.75
2022-11-29T06:33:38.291Z,80.04
2022-11-29T06:34:38.302Z,79.83
2022-11-29T06:35:38.290Z,80.04
2022-11-29T06:36:39.050Z,79.83
2022-11-29T06:37:38.240Z,79.83
2022-11-29T06:38:38.291Z,79.72
2022-11-29T06:39:38.241Z,79.97
2022-11-29T06:40:38.214Z,79.93
2022-11-29T06:41:38.205Z,79.83
2022-11-29T06:42:38.185Z,79.72
2022-11-29T06:43:38.179Z,79.93
2022-11-29T06:44:38.217Z,80.04
2022-11-29T06:45:38.156Z,79.72
2022-11-29T06:46:39.135Z,79.72
2022-11-29T06:47:38.140Z,79.72
2022-11-29T06:48:38.126Z,79.68
2022-11-29T06:49:38.295Z,80.04
2022-11-29T06:50:38.788Z,80.04
2022-11-29T06:51:38.139Z,80.00
2022-11-29T06:52:39.014Z,80.00
2022-11-29T06:53:38.151Z,79.79
2022-11-29T06:54:38.085Z,79.58
2022-11-29T06:55:39.021Z,79.58
2022-11-29T06:56:40.703Z,79.68
2022-11-29T06:57:38.056Z,79.96
2022-11-29T06:58:38.001Z,79.64
2022-11-29T06:59:38.992Z,79.86
2022-11-29T07:00:38.093Z,79.75
2022-11-29T07:01:38.008Z,79.86
2022-11-29T07:02:37.997Z,79.61
2022-11-29T07:03:37.967Z,79.82
2022-11-29T07:04:42.625Z,79.33
2022-11-29T07:05:38.949Z,79.50
2022-11-29T07:06:37.929Z,79.61
2022-11-29T07:07:37.997Z,79.61
2022-11-29T07:08:37.939Z,79.40
2022-11-29T07:09:37.894Z,79.47
2022-11-29T07:10:37.877Z,79.26
2022-11-29T07:11:37.875Z,79.16
2022-11-29T07:12:37.854Z,79.58
2022-11-29T07:13:37.840Z,79.26
2022-11-29T07:14:37.873Z,79.16
2022-11-29T07:15:38.072Z,79.02
2022-11-29T07:16:37.894Z,79.05
2022-11-29T07:17:37.798Z,79.26
2022-11-29T07:18:37.846Z,79.16
2022-11-29T07:19:37.770Z,79.16
2022-11-29T07:20:37.802Z,79.44
2022-11-29T07:21:37.771Z,79.64
2022-11-29T07:22:37.744Z,79.54
2022-11-29T07:23:37.734Z,79.29
2022-11-29T07:24:37.718Z,79.44
2022-11-29T07:25:37.759Z,79.29
2022-11-29T07:26:37.773Z,79.19
2022-11-29T07:27:37.740Z,79.29
2022-11-29T07:28:37.678Z,79.08
2022-11-29T07:29:37.663Z,79.19
2022-11-29T07:30:37.665Z,79.15
2022-11-29T07:31:37.673Z,79.05
2022-11-29T07:32:37.670Z,78.94
2022-11-29T07:33:37.624Z,79.05
2022-11-29T07:34:38.490Z,79.15
2022-11-29T07:35:38.440Z,79.05
2022-11-29T07:36:37.585Z,79.15
2022-11-29T07:37:38.539Z,79.22
2022-11-29T07:38:37.598Z,79.22
2022-11-29T07:39:37.555Z,79.11
2022-11-29T07:40:38.092Z,79.01
2022-11-29T07:41:37.535Z,79.33
2022-11-29T07:42:37.520Z,79.22
2022-11-29T07:43:37.511Z,79.01
2022-11-29T07:44:37.570Z,79.19
2022-11-29T07:45:37.488Z,78.87
2022-11-29T07:46:37.513Z,79.19
2022-11-29T07:47:37.469Z,79.08
2022-11-29T07:48:37.549Z,79.29
2022-11-29T07:49:37.465Z,78.87
2022-11-29T07:50:37.506Z,79.08
2022-11-29T07:51:37.453Z,79.29
2022-11-29T07:52:37.410Z,78.97
2022-11-29T07:53:37.423Z,79.08
2022-11-29T07:54:37.412Z,78.97
2022-11-29T07:55:37.388Z,79.29
2022-11-29T07:56:37.618Z,78.94
2022-11-29T07:57:37.354Z,79.25
2022-11-29T07:58:37.419Z,79.15
2022-11-29T07:59:37.332Z,79.05
2022-11-29T08:00:37.443Z,79.15
2022-11-29T08:01:37.351Z,79.05
2022-11-29T08:02:37.391Z,78.94
2022-11-29T08:03:37.285Z,78.80
2022-11-29T08:04:37.302Z,79.11
2022-11-29T08:05:37.269Z,79.22
2022-11-29T08:06:37.254Z,78.69
2022-11-29T08:07:37.322Z,78.77
2022-11-29T08:08:42.364Z,78.91
2022-11-29T08:09:38.232Z,78.87
2022-11-29T08:10:37.205Z,78.91
2022-11-29T08:11:37.194Z,78.77
2022-11-29T08:12:37.186Z,78.66
2022-11-29T08:13:37.178Z,78.77
2022-11-29T08:14:37.287Z,78.77
2022-11-29T08:15:37.153Z,78.77
2022-11-29T08:16:37.375Z,78.66
2022-11-29T08:17:37.128Z,79.14
2022-11-29T08:18:37.122Z,78.94
2022-11-29T08:19:37.105Z,78.83
2022-11-29T08:20:37.197Z,79.04
2022-11-29T08:21:37.100Z,78.90
2022-11-29T08:22:37.075Z,79.04
2022-11-29T08:23:37.064Z,79.00
2022-11-29T08:24:37.052Z,78.90
2022-11-29T08:25:37.073Z,78.90
2022-11-29T08:26:37.108Z,79.00
2022-11-29T08:27:38.045Z,79.07
2022-11-29T08:28:37.012Z,78.76
2022-11-29T08:29:37.020Z,78.55
2022-11-29T08:30:36.992Z,78.76
2022-11-29T08:31:37.547Z,78.86
2022-11-29T08:32:36.992Z,79.07
2022-11-29T08:33:36.954Z,79.14
2022-11-29T08:34:36.954Z,78.93
2022-11-29T08:35:37.016Z,78.83
2022-11-29T08:36:36.948Z,78.83
2022-11-29T08:37:36.909Z,78.93
2022-11-29T08:38:36.978Z,79.03
2022-11-29T08:39:36.885Z,78.83
2022-11-29T08:40:36.868Z,78.79
2022-11-29T08:41:36.861Z,78.89
2022-11-29T08:42:36.880Z,78.79
2022-11-29T08:43:36.833Z,78.69
2022-11-29T08:44:36.876Z,78.79
2022-11-29T08:45:36.880Z,78.75
2022-11-29T08:46:36.955Z,78.79
2022-11-29T08:47:36.798Z,78.65
2022-11-29T08:48:36.990Z,78.65
2022-11-29T08:49:36.773Z,78.65
2022-11-29T08:50:36.820Z,78.75
2022-11-29T08:51:36.750Z,78.86
2022-11-29T08:52:36.786Z,78.75
2022-11-29T08:53:36.719Z,78.82
2022-11-29T08:54:36.720Z,78.75
2022-11-29T08:55:36.712Z,78.61
2022-11-29T08:57:40.182Z,79.13
2022-11-29T08:58:36.662Z,78.72
2022-11-29T08:59:36.661Z,79.13
2022-11-29T09:00:36.642Z,78.68
2022-11-29T09:01:36.746Z,79.13
2022-11-29T09:02:36.796Z,78.72
2022-11-29T09:03:36.641Z,79.20
2022-11-29T09:04:36.623Z,79.10
2022-11-29T09:05:36.592Z,78.58
2022-11-29T09:06:36.594Z,78.78
2022-11-29T09:07:36.633Z,78.58
2022-11-29T09:08:36.741Z,78.99
2022-11-29T09:09:36.570Z,78.58
2022-11-29T09:10:36.570Z,78.65
2022-11-29T09:11:36.521Z,78.55
2022-11-29T09:12:36.508Z,79.06
2022-11-29T09:13:36.554Z,78.55
2022-11-29T09:14:36.538Z,78.55
2022-11-29T09:15:36.481Z,78.65
2022-11-29T09:16:36.616Z,78.65
2022-11-29T09:17:36.504Z,78.75
2022-11-29T09:18:36.443Z,78.55
2022-11-29T09:19:36.482Z,78.55
2022-11-29T09:20:36.624Z,78.51
2022-11-29T09:21:36.532Z,78.51
2022-11-29T09:22:36.402Z,78.92
2022-11-29T09:23:36.388Z,78.51
2022-11-29T09:24:36.402Z,78.51
2022-11-29T09:25:36.363Z,78.41
2022-11-29T09:26:36.416Z,78.82
2022-11-29T09:27:36.347Z,79.03
2022-11-29T09:28:36.342Z,78.51
2022-11-29T09:29:36.322Z,78.58
2022-11-29T09:30:36.311Z,78.68
2022-11-29T09:31:36.391Z,78.47
2022-11-29T09:32:36.380Z,78.47
2022-11-29T09:33:36.284Z,78.37
2022-11-29T09:34:36.259Z,78.37
2022-11-29T09:35:36.288Z,78.47
2022-11-29T09:36:36.282Z,78.47
2022-11-29T09:37:36.228Z,78.54
2022-11-29T09:38:36.391Z,78.44
2022-11-29T09:39:36.411Z,78.96
2022-11-29T09:40:36.424Z,78.44
2022-11-29T09:41:36.180Z,78.33
2022-11-29T09:42:36.167Z,78.81
2022-11-29T09:43:36.163Z,78.54
2022-11-29T09:44:36.198Z,78.44
2022-11-29T09:45:36.214Z,78.61
2022-11-29T09:46:36.126Z,78.81
2022-11-29T09:47:37.071Z,78.71
2022-11-29T09:48:36.108Z,78.81
2022-11-29T09:49:36.094Z,78.81
2022-11-29T09:50:36.554Z,78.81
2022-11-29T09:51:41.171Z,78.81
2022-11-29T09:52:37.130Z,78.71
2022-11-29T09:53:36.151Z,78.88
2022-11-29T09:54:36.038Z,78.88
2022-11-29T09:55:36.062Z,78.88
2022-11-29T09:56:36.093Z,78.78
2022-11-29T09:57:36.009Z,78.67
2022-11-29T09:58:36.033Z,78.53
2022-11-29T09:59:35.990Z,78.85
2022-11-29T10:00:35.970Z,78.74
2022-11-29T10:01:35.986Z,78.33
2022-11-29T10:02:36.039Z,78.53
2022-11-29T10:03:35.933Z,78.74
2022-11-29T10:04:35.929Z,78.33
2022-11-29T10:05:35.912Z,78.29
2022-11-29T10:06:35.907Z,78.85
2022-11-29T10:07:36.026Z,78.39
2022-11-29T10:08:35.944Z,78.50
2022-11-29T10:09:35.865Z,78.70
2022-11-29T10:10:35.854Z,78.70
2022-11-29T10:11:35.846Z,78.50
2022-11-29T10:12:35.899Z,78.60
2022-11-29T10:13:35.818Z,78.81
2022-11-29T10:14:35.841Z,78.46
2022-11-29T10:15:35.839Z,78.67
2022-11-29T10:16:35.837Z,78.77
2022-11-29T10:17:35.803Z,78.88
2022-11-29T10:18:35.763Z,78.67
2022-11-29T10:19:35.786Z,78.67
2022-11-29T10:20:40.453Z,78.67
2022-11-29T10:21:36.728Z,78.74
2022-11-29T10:22:35.747Z,78.67
2022-11-29T10:23:35.710Z,78.67
2022-11-29T10:24:35.697Z,78.84
2022-11-29T10:25:35.686Z,78.74
2022-11-29T10:26:36.038Z,78.53
2022-11-29T10:27:35.659Z,78.80
2022-11-29T10:28:35.697Z,78.91
2022-11-29T10:29:35.649Z,78.91
2022-11-29T10:30:35.682Z,78.91
2022-11-29T10:31:35.641Z,78.80
2022-11-29T10:32:35.675Z,78.80
2022-11-29T10:33:35.595Z,78.80
2022-11-29T10:34:35.578Z,78.91
2022-11-29T10:35:35.572Z,78.77
2022-11-29T10:36:35.631Z,79.01
2022-11-29T10:37:35.638Z,79.01
2022-11-29T10:38:35.575Z,78.97
2022-11-29T10:39:35.528Z,78.77
2022-11-29T10:40:36.127Z,79.08
2022-11-29T10:41:35.501Z,78.97
2022-11-29T10:42:35.487Z,78.77
2022-11-29T10:43:35.502Z,79.04
2022-11-29T10:44:35.532Z,78.73
2022-11-29T10:45:35.521Z,78.73
2022-11-29T10:46:35.532Z,78.73
2022-11-29T10:47:35.435Z,78.90
2022-11-29T10:48:35.442Z,78.90
2022-11-29T10:49:35.416Z,78.90
2022-11-29T10:50:35.513Z,78.69
2022-11-29T10:51:35.419Z,78.90
2022-11-29T10:52:35.383Z,79.00
2022-11-29T10:53:35.366Z,78.69
2022-11-29T10:54:35.361Z,79.00
2022-11-29T10:55:36.057Z,78.69
2022-11-29T10:56:35.375Z,78.97
2022-11-29T10:57:35.400Z,78.66
2022-11-29T10:58:36.085Z,78.97
2022-11-29T10:59:35.327Z,78.97
2022-11-29T11:00:35.547Z,78.76
2022-11-29T11:01:35.303Z,79.07
2022-11-29T11:02:36.034Z,79.24
2022-11-29T11:03:35.285Z,79.24
2022-11-29T11:04:36.259Z,79.44
2022-11-29T11:05:35.266Z,79.24
2022-11-29T11:06:35.221Z,79.34
2022-11-29T11:07:35.307Z,79.24
2022-11-29T11:08:35.557Z,78.89
2022-11-29T11:09:35.185Z,79.00
2022-11-29T11:10:35.207Z,79.41
2022-11-29T11:11:35.162Z,79.30
2022-11-29T11:12:35.159Z,79.10
2022-11-29T11:13:35.218Z,79.30
2022-11-29T11:14:35.137Z,79.20
2022-11-29T11:15:35.171Z,79.00
2022-11-29T11:16:37.585Z,79.20
2022-11-29T11:17:35.976Z,78.86
2022-11-29T11:18:35.086Z,78.86
2022-11-29T11:19:35.098Z,78.86
2022-11-29T11:20:35.150Z,78.75
2022-11-29T11:21:35.053Z,78.65
2022-11-29T11:22:35.039Z,78.75
2022-11-29T11:23:39.914Z,78.75
2022-11-29T11:24:36.981Z,79.06
2022-11-29T11:25:35.032Z,79.27
2022-11-29T11:26:35.018Z,79.16
2022-11-29T11:27:34.986Z,79.27
2022-11-29T11:28:35.074Z,79.27
2022-11-29T11:29:34.970Z,79.13
2022-11-29T11:30:35.001Z,78.92
2022-11-29T11:31:35.009Z,79.03
2022-11-29T11:32:35.035Z,79.03
2022-11-29T11:33:34.968Z,79.13
2022-11-29T11:34:34.907Z,78.82
2022-11-29T11:35:34.952Z,79.03
2022-11-29T11:36:34.881Z,78.92
2022-11-29T11:37:34.957Z,78.92
2022-11-29T11:38:34.878Z,79.03
2022-11-29T11:39:34.871Z,78.82
2022-11-29T11:40:34.914Z,78.92
2022-11-29T11:41:34.938Z,78.78
2022-11-29T11:42:34.817Z,78.89
2022-11-29T11:43:34.806Z,78.99
2022-11-29T11:44:50.201Z,78.78
2022-11-29T11:45:35.808Z,78.99
2022-11-29T11:46:34.808Z,78.78
2022-11-29T11:47:34.897Z,78.68
2022-11-29T11:48:34.775Z,78.89
2022-11-29T11:49:34.735Z,78.58
2022-11-29T11:50:34.809Z,78.89
2022-11-29T11:51:34.747Z,78.99
2022-11-29T11:52:39.816Z,78.58
2022-11-29T11:53:34.731Z,78.68
2022-11-29T11:54:34.681Z,78.68
2022-11-29T11:55:34.685Z,78.89
2022-11-29T11:56:34.726Z,78.75
2022-11-29T11:57:34.648Z,78.68
2022-11-29T11:58:34.660Z,78.75
2022-11-29T11:59:34.626Z,78.85
2022-11-29T12:01:01.745Z,79.16
2022-11-29T12:01:35.634Z,78.64
2022-11-29T12:02:34.809Z,78.96
2022-11-29T12:03:34.656Z,78.85
2022-11-29T12:04:34.594Z,78.85
2022-11-29T12:05:34.564Z,78.89
2022-11-29T12:06:34.545Z,78.54
2022-11-29T12:08:06.044Z,78.85
2022-11-29T12:08:35.603Z,78.64
2022-11-29T12:09:34.509Z,78.96
2022-11-29T12:10:34.563Z,78.54
2022-11-29T12:11:34.491Z,78.54
2022-11-29T12:12:34.600Z,78.64
2022-11-29T12:13:34.492Z,78.75
2022-11-29T12:14:34.455Z,78.96
2022-11-29T12:15:34.534Z,79.05
2022-11-29T12:16:34.435Z,79.05
2022-11-29T12:17:34.435Z,78.75
2022-11-29T12:18:34.518Z,78.96
2022-11-29T12:19:34.423Z,78.85
2022-11-29T12:20:34.520Z,78.54
2022-11-29T12:21:34.380Z,78.96
2022-11-29T12:22:34.363Z,78.96
2022-11-29T12:23:34.350Z,78.96
2022-11-29T12:24:34.345Z,78.54
2022-11-29T12:25:34.359Z,79.05
2022-11-29T12:26:56.446Z,79.05
2022-11-29T12:27:35.310Z,78.54
2022-11-29T12:28:34.333Z,78.64
2022-11-29T12:29:34.285Z,78.75
2022-11-29T12:30:34.301Z,78.75
2022-11-29T12:31:34.351Z,78.75
2022-11-29T12:32:34.250Z,78.54
2022-11-29T12:33:34.234Z,79.16
2022-11-29T12:34:34.227Z,78.96
2022-11-29T12:35:34.251Z,78.64
2022-11-29T12:36:34.227Z,78.64
2022-11-29T12:37:34.282Z,78.64
2022-11-29T12:38:34.195Z,79.16
2022-11-29T12:39:34.174Z,78.75
2022-11-29T12:40:34.177Z,78.75
2022-11-29T12:41:34.137Z,78.85
2022-11-29T12:42:34.126Z,78.85
2022-11-29T12:43:34.181Z,78.75
2022-11-29T12:44:34.106Z,78.85
2022-11-29T12:45:34.120Z,78.85
2022-11-29T12:46:34.262Z,78.85
2022-11-29T12:47:36.530Z,78.54
2022-11-29T12:48:34.063Z,78.54
2022-11-29T12:49:34.080Z,78.64
2022-11-29T12:50:34.041Z,78.54
2022-11-29T12:51:34.041Z,78.50
2022-11-29T12:52:34.044Z,78.75
2022-11-29T12:53:34.001Z,78.71